sensor_id;sensor_type;location;lat;lon;timestamp;P1;durP1;ratioP1;P2;durP2;ratioP2
47589;SDS011;33316;52.298;9.056;2023-09-07T00:00:41;2.10;;;1.17;;
47589;SDS011;33316;52.298;9.056;2023-09-07T00:03:07;1.70;;;1.02;;
47589;SDS011;33316;52.298;9.056;2023-09-07T00:05:34;1.40;;;0.88;;
47589;SDS011;33316;52.298;9.056;2023-09-07T00:08:01;1.30;;;0.70;;
47589;SDS011;33316;52.298;9.056;2023-09-07T00:10:30;2.10;;;1.15;;
47589;SDS011;33316;52.298;9.056;2023-09-07T00:13:00;1.30;;;0.90;;
47589;SDS011;33316;52.298;9.056;2023-09-07T00:15:27;1.67;;;0.90;;
47589;SDS011;33316;52.298;9.056;2023-09-07T00:17:55;1.30;;;1.00;;
47589;SDS011;33316;52.298;9.056;2023-09-07T00:20:22;1.15;;;0.85;;
47589;SDS011;33316;52.298;9.056;2023-09-07T00:22:50;1.33;;;0.90;;
47589;SDS011;33316;52.298;9.056;2023-09-07T00:25:17;1.40;;;0.88;;
47589;SDS011;33316;52.298;9.056;2023-09-07T00:27:46;1.15;;;0.88;;
47589;SDS011;33316;52.298;9.056;2023-09-07T00:30:13;1.58;;;0.82;;
47589;SDS011;33316;52.298;9.056;2023-09-07T00:32:40;1.70;;;1.20;;
47589;SDS011;33316;52.298;9.056;2023-09-07T00:35:08;1.20;;;1.00;;
47589;SDS011;33316;52.298;9.056;2023-09-07T00:37:35;1.83;;;1.23;;
47589;SDS011;33316;52.298;9.056;2023-09-07T00:40:03;2.95;;;1.10;;
47589;SDS011;33316;52.298;9.056;2023-09-07T00:45:02;2.05;;;0.98;;
47589;SDS011;33316;52.298;9.056;2023-09-07T00:47:30;1.38;;;0.90;;
47589;SDS011;33316;52.298;9.056;2023-09-07T00:50:01;1.58;;;0.90;;
47589;SDS011;33316;52.298;9.056;2023-09-07T00:52:29;2.28;;;1.08;;
47589;SDS011;33316;52.298;9.056;2023-09-07T00:54:57;2.35;;;1.20;;
47589;SDS011;33316;52.298;9.056;2023-09-07T00:57:25;1.40;;;1.15;;
47589;SDS011;33316;52.298;9.056;2023-09-07T00:59:52;2.20;;;0.90;;
47589;SDS011;33316;52.298;9.056;2023-09-07T01:02:21;1.77;;;1.15;;
47589;SDS011;33316;52.298;9.056;2023-09-07T01:04:50;1.45;;;0.80;;
47589;SDS011;33316;52.298;9.056;2023-09-07T01:07:18;1.95;;;1.13;;
47589;SDS011;33316;52.298;9.056;2023-09-07T01:09:49;2.20;;;1.17;;
47589;SDS011;33316;52.298;9.056;2023-09-07T01:14:45;3.42;;;1.00;;
47589;SDS011;33316;52.298;9.056;2023-09-07T01:17:13;2.17;;;1.10;;
47589;SDS011;33316;52.298;9.056;2023-09-07T01:19:42;2.47;;;1.10;;
47589;SDS011;33316;52.298;9.056;2023-09-07T01:22:11;2.17;;;0.93;;
47589;SDS011;33316;52.298;9.056;2023-09-07T01:24:39;1.90;;;1.15;;
47589;SDS011;33316;52.298;9.056;2023-09-07T01:27:07;2.15;;;1.05;;
47589;SDS011;33316;52.298;9.056;2023-09-07T01:29:35;2.08;;;1.30;;
47589;SDS011;33316;52.298;9.056;2023-09-07T01:32:04;3.65;;;1.23;;
47589;SDS011;33316;52.298;9.056;2023-09-07T01:34:31;2.70;;;1.70;;
47589;SDS011;33316;52.298;9.056;2023-09-07T01:36:58;2.33;;;1.20;;
47589;SDS011;33316;52.298;9.056;2023-09-07T01:39:27;2.55;;;1.30;;
47589;SDS011;33316;52.298;9.056;2023-09-07T01:41:54;1.45;;;1.20;;
47589;SDS011;33316;52.298;9.056;2023-09-07T01:44:21;3.08;;;1.55;;
47589;SDS011;33316;52.298;9.056;2023-09-07T01:46:48;3.83;;;1.42;;
47589;SDS011;33316;52.298;9.056;2023-09-07T01:49:15;1.70;;;1.30;;
47589;SDS011;33316;52.298;9.056;2023-09-07T01:51:42;1.40;;;1.10;;
47589;SDS011;33316;52.298;9.056;2023-09-07T01:54:09;4.35;;;1.10;;
47589;SDS011;33316;52.298;9.056;2023-09-07T01:56:38;2.60;;;1.50;;
47589;SDS011;33316;52.298;9.056;2023-09-07T01:59:06;2.08;;;1.55;;
47589;SDS011;33316;52.298;9.056;2023-09-07T02:01:34;3.05;;;1.45;;
47589;SDS011;33316;52.298;9.056;2023-09-07T02:04:02;1.83;;;1.20;;
47589;SDS011;33316;52.298;9.056;2023-09-07T02:06:30;2.65;;;1.50;;
47589;SDS011;33316;52.298;9.056;2023-09-07T02:08:57;1.70;;;1.35;;
47589;SDS011;33316;52.298;9.056;2023-09-07T02:11:24;3.58;;;1.73;;
47589;SDS011;33316;52.298;9.056;2023-09-07T02:13:53;1.85;;;1.30;;
47589;SDS011;33316;52.298;9.056;2023-09-07T02:16:20;5.20;;;1.48;;
47589;SDS011;33316;52.298;9.056;2023-09-07T02:18:48;1.98;;;1.35;;
47589;SDS011;33316;52.298;9.056;2023-09-07T02:21:16;3.72;;;1.77;;
47589;SDS011;33316;52.298;9.056;2023-09-07T02:23:43;1.90;;;1.40;;
47589;SDS011;33316;52.298;9.056;2023-09-07T02:26:10;2.58;;;1.30;;
47589;SDS011;33316;52.298;9.056;2023-09-07T02:28:37;2.70;;;1.40;;
47589;SDS011;33316;52.298;9.056;2023-09-07T02:31:06;2.08;;;1.63;;
47589;SDS011;33316;52.298;9.056;2023-09-07T02:33:34;2.45;;;1.90;;
47589;SDS011;33316;52.298;9.056;2023-09-07T02:36:01;2.50;;;1.80;;
47589;SDS011;33316;52.298;9.056;2023-09-07T02:38:29;2.38;;;1.65;;
47589;SDS011;33316;52.298;9.056;2023-09-07T02:40:57;3.50;;;1.85;;
47589;SDS011;33316;52.298;9.056;2023-09-07T02:43:24;4.13;;;2.13;;
47589;SDS011;33316;52.298;9.056;2023-09-07T02:45:51;3.65;;;1.90;;
47589;SDS011;33316;52.298;9.056;2023-09-07T02:48:22;4.28;;;1.95;;
47589;SDS011;33316;52.298;9.056;2023-09-07T02:50:49;4.30;;;2.00;;
47589;SDS011;33316;52.298;9.056;2023-09-07T02:53:17;4.40;;;1.95;;
47589;SDS011;33316;52.298;9.056;2023-09-07T02:55:44;3.28;;;1.90;;
47589;SDS011;33316;52.298;9.056;2023-09-07T02:58:11;2.63;;;1.60;;
47589;SDS011;33316;52.298;9.056;2023-09-07T03:00:41;2.30;;;1.38;;
47589;SDS011;33316;52.298;9.056;2023-09-07T03:05:39;1.70;;;1.45;;
47589;SDS011;33316;52.298;9.056;2023-09-07T03:08:06;1.67;;;1.50;;
47589;SDS011;33316;52.298;9.056;2023-09-07T03:10:34;3.28;;;1.50;;
47589;SDS011;33316;52.298;9.056;2023-09-07T03:13:02;2.10;;;1.35;;
47589;SDS011;33316;52.298;9.056;2023-09-07T03:15:31;5.22;;;2.50;;
47589;SDS011;33316;52.298;9.056;2023-09-07T03:17:58;3.88;;;1.95;;
47589;SDS011;33316;52.298;9.056;2023-09-07T03:20:26;3.47;;;1.85;;
47589;SDS011;33316;52.298;9.056;2023-09-07T03:22:54;3.45;;;1.67;;
47589;SDS011;33316;52.298;9.056;2023-09-07T03:25:22;3.15;;;1.88;;
47589;SDS011;33316;52.298;9.056;2023-09-07T03:27:49;2.63;;;1.77;;
47589;SDS011;33316;52.298;9.056;2023-09-07T03:30:16;2.88;;;2.33;;
47589;SDS011;33316;52.298;9.056;2023-09-07T03:32:43;2.88;;;1.98;;
47589;SDS011;33316;52.298;9.056;2023-09-07T03:35:11;3.03;;;1.85;;
47589;SDS011;33316;52.298;9.056;2023-09-07T03:37:38;2.92;;;1.98;;
47589;SDS011;33316;52.298;9.056;2023-09-07T03:40:07;3.00;;;1.70;;
47589;SDS011;33316;52.298;9.056;2023-09-07T03:42:36;2.08;;;1.60;;
47589;SDS011;33316;52.298;9.056;2023-09-07T03:45:05;2.53;;;1.48;;
47589;SDS011;33316;52.298;9.056;2023-09-07T03:47:32;2.85;;;1.55;;
47589;SDS011;33316;52.298;9.056;2023-09-07T03:50:00;2.42;;;1.92;;
47589;SDS011;33316;52.298;9.056;2023-09-07T03:52:29;3.20;;;2.35;;
47589;SDS011;33316;52.298;9.056;2023-09-07T03:54:59;2.83;;;1.92;;
47589;SDS011;33316;52.298;9.056;2023-09-07T03:57:28;3.88;;;2.38;;
47589;SDS011;33316;52.298;9.056;2023-09-07T03:59:56;4.13;;;2.42;;
47589;SDS011;33316;52.298;9.056;2023-09-07T04:02:24;3.58;;;2.13;;
47589;SDS011;33316;52.298;9.056;2023-09-07T04:04:51;2.67;;;1.58;;
47589;SDS011;33316;52.298;9.056;2023-09-07T04:07:19;2.72;;;1.90;;
47589;SDS011;33316;52.298;9.056;2023-09-07T04:09:46;3.33;;;1.80;;
47589;SDS011;33316;52.298;9.056;2023-09-07T04:12:14;3.78;;;1.45;;
47589;SDS011;33316;52.298;9.056;2023-09-07T04:14:42;2.92;;;1.83;;
47589;SDS011;33316;52.298;9.056;2023-09-07T04:17:10;3.30;;;1.70;;
47589;SDS011;33316;52.298;9.056;2023-09-07T04:19:38;3.58;;;1.80;;
47589;SDS011;33316;52.298;9.056;2023-09-07T04:22:05;3.00;;;1.77;;
47589;SDS011;33316;52.298;9.056;2023-09-07T04:24:33;3.33;;;1.83;;
47589;SDS011;33316;52.298;9.056;2023-09-07T04:27:01;2.65;;;1.67;;
47589;SDS011;33316;52.298;9.056;2023-09-07T04:29:30;2.65;;;1.80;;
47589;SDS011;33316;52.298;9.056;2023-09-07T04:31:58;3.33;;;2.08;;
47589;SDS011;33316;52.298;9.056;2023-09-07T04:34:25;3.58;;;2.20;;
47589;SDS011;33316;52.298;9.056;2023-09-07T04:36:53;4.15;;;2.20;;
47589;SDS011;33316;52.298;9.056;2023-09-07T04:39:20;2.72;;;2.05;;
47589;SDS011;33316;52.298;9.056;2023-09-07T04:41:47;2.85;;;1.90;;
47589;SDS011;33316;52.298;9.056;2023-09-07T04:44:14;2.45;;;1.83;;
47589;SDS011;33316;52.298;9.056;2023-09-07T04:46:41;2.75;;;2.05;;
47589;SDS011;33316;52.298;9.056;2023-09-07T04:49:11;3.00;;;2.05;;
47589;SDS011;33316;52.298;9.056;2023-09-07T04:51:39;5.00;;;2.65;;
47589;SDS011;33316;52.298;9.056;2023-09-07T04:54:06;5.53;;;2.50;;
47589;SDS011;33316;52.298;9.056;2023-09-07T04:56:33;4.25;;;2.45;;
47589;SDS011;33316;52.298;9.056;2023-09-07T04:59:00;3.53;;;2.55;;
47589;SDS011;33316;52.298;9.056;2023-09-07T05:01:26;4.43;;;2.75;;
47589;SDS011;33316;52.298;9.056;2023-09-07T05:03:54;4.70;;;3.10;;
47589;SDS011;33316;52.298;9.056;2023-09-07T05:06:23;5.10;;;3.10;;
47589;SDS011;33316;52.298;9.056;2023-09-07T05:08:51;4.00;;;2.83;;
47589;SDS011;33316;52.298;9.056;2023-09-07T05:11:18;4.80;;;2.42;;
47589;SDS011;33316;52.298;9.056;2023-09-07T05:13:45;3.60;;;2.80;;
47589;SDS011;33316;52.298;9.056;2023-09-07T05:16:12;5.40;;;2.85;;
47589;SDS011;33316;52.298;9.056;2023-09-07T05:18:40;5.00;;;3.08;;
47589;SDS011;33316;52.298;9.056;2023-09-07T05:21:12;4.47;;;3.03;;
47589;SDS011;33316;52.298;9.056;2023-09-07T05:23:40;3.67;;;2.78;;
47589;SDS011;33316;52.298;9.056;2023-09-07T05:26:07;3.75;;;2.55;;
47589;SDS011;33316;52.298;9.056;2023-09-07T05:28:34;3.05;;;2.30;;
47589;SDS011;33316;52.298;9.056;2023-09-07T05:31:01;3.80;;;2.47;;
47589;SDS011;33316;52.298;9.056;2023-09-07T05:33:28;2.13;;;1.80;;
47589;SDS011;33316;52.298;9.056;2023-09-07T05:35:55;3.42;;;2.55;;
47589;SDS011;33316;52.298;9.056;2023-09-07T05:38:22;4.88;;;2.60;;
47589;SDS011;33316;52.298;9.056;2023-09-07T05:40:51;4.32;;;2.80;;
47589;SDS011;33316;52.298;9.056;2023-09-07T05:43:20;3.50;;;2.30;;
47589;SDS011;33316;52.298;9.056;2023-09-07T05:45:47;5.00;;;2.53;;
47589;SDS011;33316;52.298;9.056;2023-09-07T05:48:14;4.85;;;2.90;;
47589;SDS011;33316;52.298;9.056;2023-09-07T05:50:42;5.22;;;3.25;;
47589;SDS011;33316;52.298;9.056;2023-09-07T05:53:10;7.05;;;2.83;;
47589;SDS011;33316;52.298;9.056;2023-09-07T05:55:37;5.28;;;2.55;;
47589;SDS011;33316;52.298;9.056;2023-09-07T05:58:06;4.03;;;2.88;;
47589;SDS011;33316;52.298;9.056;2023-09-07T06:00:37;4.32;;;2.58;;
47589;SDS011;33316;52.298;9.056;2023-09-07T06:03:05;6.32;;;2.83;;
47589;SDS011;33316;52.298;9.056;2023-09-07T06:05:33;3.05;;;2.00;;
47589;SDS011;33316;52.298;9.056;2023-09-07T06:08:01;3.15;;;2.60;;
47589;SDS011;33316;52.298;9.056;2023-09-07T06:10:29;3.72;;;2.83;;
47589;SDS011;33316;52.298;9.056;2023-09-07T06:12:57;6.43;;;2.70;;
47589;SDS011;33316;52.298;9.056;2023-09-07T06:15:26;4.13;;;2.60;;
47589;SDS011;33316;52.298;9.056;2023-09-07T06:17:54;5.35;;;2.95;;
47589;SDS011;33316;52.298;9.056;2023-09-07T06:20:21;5.47;;;2.97;;
47589;SDS011;33316;52.298;9.056;2023-09-07T06:22:48;5.70;;;3.80;;
47589;SDS011;33316;52.298;9.056;2023-09-07T06:25:15;3.63;;;2.88;;
47589;SDS011;33316;52.298;9.056;2023-09-07T06:27:43;4.07;;;3.08;;
47589;SDS011;33316;52.298;9.056;2023-09-07T06:30:13;4.20;;;3.10;;
47589;SDS011;33316;52.298;9.056;2023-09-07T06:32:42;6.88;;;3.30;;
47589;SDS011;33316;52.298;9.056;2023-09-07T06:35:09;8.30;;;3.25;;
47589;SDS011;33316;52.298;9.056;2023-09-07T06:37:36;3.88;;;2.45;;
47589;SDS011;33316;52.298;9.056;2023-09-07T06:40:07;3.63;;;2.58;;
47589;SDS011;33316;52.298;9.056;2023-09-07T06:42:36;4.85;;;2.97;;
47589;SDS011;33316;52.298;9.056;2023-09-07T06:45:08;4.50;;;2.83;;
47589;SDS011;33316;52.298;9.056;2023-09-07T06:47:37;4.82;;;3.25;;
47589;SDS011;33316;52.298;9.056;2023-09-07T06:50:06;4.68;;;3.00;;
47589;SDS011;33316;52.298;9.056;2023-09-07T06:52:34;7.30;;;3.58;;
47589;SDS011;33316;52.298;9.056;2023-09-07T06:55:01;3.90;;;3.08;;
47589;SDS011;33316;52.298;9.056;2023-09-07T06:57:29;5.40;;;3.55;;
47589;SDS011;33316;52.298;9.056;2023-09-07T06:59:56;5.45;;;3.60;;
47589;SDS011;33316;52.298;9.056;2023-09-07T07:02:23;5.43;;;2.97;;
47589;SDS011;33316;52.298;9.056;2023-09-07T07:04:51;5.32;;;3.20;;
47589;SDS011;33316;52.298;9.056;2023-09-07T07:07:19;5.10;;;3.00;;
47589;SDS011;33316;52.298;9.056;2023-09-07T07:09:55;3.25;;;2.17;;
47589;SDS011;33316;52.298;9.056;2023-09-07T07:12:23;4.72;;;2.78;;
47589;SDS011;33316;52.298;9.056;2023-09-07T07:14:51;3.88;;;2.50;;
47589;SDS011;33316;52.298;9.056;2023-09-07T07:17:22;4.82;;;2.75;;
47589;SDS011;33316;52.298;9.056;2023-09-07T07:19:49;4.45;;;2.47;;
47589;SDS011;33316;52.298;9.056;2023-09-07T07:22:17;3.97;;;2.80;;
47589;SDS011;33316;52.298;9.056;2023-09-07T07:24:47;4.38;;;2.58;;
47589;SDS011;33316;52.298;9.056;2023-09-07T07:27:14;3.42;;;2.35;;
47589;SDS011;33316;52.298;9.056;2023-09-07T07:29:42;3.70;;;2.92;;
47589;SDS011;33316;52.298;9.056;2023-09-07T07:32:11;3.47;;;2.70;;
47589;SDS011;33316;52.298;9.056;2023-09-07T07:34:38;5.05;;;2.70;;
47589;SDS011;33316;52.298;9.056;2023-09-07T07:37:06;3.05;;;2.60;;
47589;SDS011;33316;52.298;9.056;2023-09-07T07:39:33;3.63;;;2.70;;
47589;SDS011;33316;52.298;9.056;2023-09-07T07:42:09;3.97;;;2.58;;
47589;SDS011;33316;52.298;9.056;2023-09-07T07:44:36;4.43;;;2.78;;
47589;SDS011;33316;52.298;9.056;2023-09-07T07:47:03;3.58;;;2.63;;
47589;SDS011;33316;52.298;9.056;2023-09-07T07:49:31;5.00;;;2.92;;
47589;SDS011;33316;52.298;9.056;2023-09-07T07:51:59;4.97;;;2.45;;
47589;SDS011;33316;52.298;9.056;2023-09-07T07:54:27;3.25;;;2.50;;
47589;SDS011;33316;52.298;9.056;2023-09-07T07:56:57;3.50;;;2.05;;
47589;SDS011;33316;52.298;9.056;2023-09-07T07:59:27;4.80;;;2.25;;
47589;SDS011;33316;52.298;9.056;2023-09-07T08:01:54;4.95;;;2.50;;
47589;SDS011;33316;52.298;9.056;2023-09-07T08:04:23;4.35;;;2.80;;
47589;SDS011;33316;52.298;9.056;2023-09-07T08:06:51;3.10;;;2.17;;
47589;SDS011;33316;52.298;9.056;2023-09-07T08:09:23;3.25;;;2.50;;
47589;SDS011;33316;52.298;9.056;2023-09-07T08:11:50;6.28;;;2.42;;
47589;SDS011;33316;52.298;9.056;2023-09-07T08:14:18;4.25;;;2.28;;
47589;SDS011;33316;52.298;9.056;2023-09-07T08:16:47;6.25;;;2.17;;
47589;SDS011;33316;52.298;9.056;2023-09-07T08:22:39;5.60;;;2.08;;
47589;SDS011;33316;52.298;9.056;2023-09-07T08:25:08;3.63;;;2.17;;
47589;SDS011;33316;52.298;9.056;2023-09-07T08:27:35;6.78;;;2.38;;
47589;SDS011;33316;52.298;9.056;2023-09-07T08:30:03;3.83;;;1.98;;
47589;SDS011;33316;52.298;9.056;2023-09-07T08:32:33;4.70;;;2.20;;
47589;SDS011;33316;52.298;9.056;2023-09-07T08:35:00;5.30;;;2.40;;
47589;SDS011;33316;52.298;9.056;2023-09-07T08:37:29;3.10;;;2.40;;
47589;SDS011;33316;52.298;9.056;2023-09-07T08:39:56;3.00;;;2.20;;
47589;SDS011;33316;52.298;9.056;2023-09-07T08:42:24;3.20;;;2.45;;
47589;SDS011;33316;52.298;9.056;2023-09-07T08:44:52;2.70;;;1.75;;
47589;SDS011;33316;52.298;9.056;2023-09-07T08:47:23;4.05;;;2.22;;
47589;SDS011;33316;52.298;9.056;2023-09-07T08:49:54;3.80;;;2.30;;
47589;SDS011;33316;52.298;9.056;2023-09-07T08:52:22;2.75;;;2.28;;
47589;SDS011;33316;52.298;9.056;2023-09-07T08:54:50;4.07;;;2.58;;
47589;SDS011;33316;52.298;9.056;2023-09-07T08:57:18;3.35;;;2.45;;
47589;SDS011;33316;52.298;9.056;2023-09-07T08:59:47;6.30;;;1.90;;
47589;SDS011;33316;52.298;9.056;2023-09-07T09:02:15;4.85;;;2.15;;
47589;SDS011;33316;52.298;9.056;2023-09-07T09:04:42;4.25;;;1.95;;
47589;SDS011;33316;52.298;9.056;2023-09-07T09:07:11;6.53;;;2.90;;
47589;SDS011;33316;52.298;9.056;2023-09-07T09:09:38;4.80;;;2.65;;
47589;SDS011;33316;52.298;9.056;2023-09-07T09:12:08;3.60;;;2.72;;
47589;SDS011;33316;52.298;9.056;2023-09-07T09:14:36;4.85;;;2.78;;
47589;SDS011;33316;52.298;9.056;2023-09-07T09:17:03;3.08;;;2.00;;
47589;SDS011;33316;52.298;9.056;2023-09-07T09:19:30;5.13;;;2.15;;
47589;SDS011;33316;52.298;9.056;2023-09-07T09:21:58;3.05;;;2.33;;
47589;SDS011;33316;52.298;9.056;2023-09-07T09:24:26;6.15;;;2.50;;
47589;SDS011;33316;52.298;9.056;2023-09-07T09:26:53;3.45;;;2.63;;
47589;SDS011;33316;52.298;9.056;2023-09-07T09:29:21;4.82;;;2.50;;
47589;SDS011;33316;52.298;9.056;2023-09-07T09:31:50;3.70;;;2.08;;
47589;SDS011;33316;52.298;9.056;2023-09-07T09:34:18;4.97;;;2.20;;
47589;SDS011;33316;52.298;9.056;2023-09-07T09:36:45;3.97;;;2.30;;
47589;SDS011;33316;52.298;9.056;2023-09-07T09:39:21;3.75;;;2.60;;
47589;SDS011;33316;52.298;9.056;2023-09-07T09:41:51;4.85;;;2.40;;
47589;SDS011;33316;52.298;9.056;2023-09-07T09:44:21;2.75;;;2.38;;
47589;SDS011;33316;52.298;9.056;2023-09-07T09:46:51;3.00;;;2.55;;
47589;SDS011;33316;52.298;9.056;2023-09-07T09:49:20;3.72;;;2.30;;
47589;SDS011;33316;52.298;9.056;2023-09-07T09:51:48;3.95;;;2.30;;
47589;SDS011;33316;52.298;9.056;2023-09-07T09:54:18;4.05;;;2.28;;
47589;SDS011;33316;52.298;9.056;2023-09-07T09:56:47;3.75;;;2.03;;
47589;SDS011;33316;52.298;9.056;2023-09-07T09:59:18;2.72;;;1.95;;
47589;SDS011;33316;52.298;9.056;2023-09-07T10:01:45;3.30;;;2.47;;
47589;SDS011;33316;52.298;9.056;2023-09-07T10:04:16;2.88;;;2.05;;
47589;SDS011;33316;52.298;9.056;2023-09-07T10:06:53;3.40;;;1.98;;
47589;SDS011;33316;52.298;9.056;2023-09-07T10:09:21;2.60;;;2.10;;
47589;SDS011;33316;52.298;9.056;2023-09-07T10:11:52;5.28;;;2.97;;
47589;SDS011;33316;52.298;9.056;2023-09-07T10:14:24;4.20;;;2.75;;
47589;SDS011;33316;52.298;9.056;2023-09-07T10:16:54;3.45;;;2.53;;
47589;SDS011;33316;52.298;9.056;2023-09-07T10:19:25;2.97;;;2.00;;
47589;SDS011;33316;52.298;9.056;2023-09-07T10:21:53;2.92;;;2.22;;
47589;SDS011;33316;52.298;9.056;2023-09-07T10:24:24;3.72;;;2.42;;
47589;SDS011;33316;52.298;9.056;2023-09-07T10:26:55;2.95;;;2.17;;
47589;SDS011;33316;52.298;9.056;2023-09-07T10:29:25;3.90;;;2.30;;
47589;SDS011;33316;52.298;9.056;2023-09-07T10:31:53;4.22;;;2.30;;
47589;SDS011;33316;52.298;9.056;2023-09-07T10:34:21;5.45;;;2.03;;
47589;SDS011;33316;52.298;9.056;2023-09-07T10:37:00;2.97;;;1.95;;
47589;SDS011;33316;52.298;9.056;2023-09-07T10:39:29;2.85;;;2.25;;
47589;SDS011;33316;52.298;9.056;2023-09-07T10:42:02;3.17;;;2.00;;
47589;SDS011;33316;52.298;9.056;2023-09-07T10:44:33;2.80;;;2.30;;
47589;SDS011;33316;52.298;9.056;2023-09-07T10:47:00;2.85;;;2.40;;
47589;SDS011;33316;52.298;9.056;2023-09-07T10:49:30;3.85;;;1.73;;
47589;SDS011;33316;52.298;9.056;2023-09-07T10:51:57;3.40;;;1.95;;
47589;SDS011;33316;52.298;9.056;2023-09-07T10:54:24;2.17;;;1.67;;
47589;SDS011;33316;52.298;9.056;2023-09-07T10:56:51;3.75;;;2.22;;
47589;SDS011;33316;52.298;9.056;2023-09-07T10:59:22;3.15;;;1.95;;
47589;SDS011;33316;52.298;9.056;2023-09-07T11:01:55;2.40;;;1.67;;
47589;SDS011;33316;52.298;9.056;2023-09-07T11:04:39;2.80;;;1.45;;
47589;SDS011;33316;52.298;9.056;2023-09-07T11:07:06;3.07;;;1.70;;
47589;SDS011;33316;52.298;9.056;2023-09-07T11:09:33;3.08;;;1.73;;
47589;SDS011;33316;52.298;9.056;2023-09-07T11:12:03;2.20;;;1.67;;
47589;SDS011;33316;52.298;9.056;2023-09-07T11:14:31;2.13;;;1.55;;
47589;SDS011;33316;52.298;9.056;2023-09-07T11:16:59;2.50;;;1.55;;
47589;SDS011;33316;52.298;9.056;2023-09-07T11:19:31;3.03;;;2.10;;
47589;SDS011;33316;52.298;9.056;2023-09-07T11:21:58;2.83;;;1.77;;
47589;SDS011;33316;52.298;9.056;2023-09-07T11:24:25;3.17;;;2.17;;
47589;SDS011;33316;52.298;9.056;2023-09-07T11:26:52;3.47;;;1.98;;
47589;SDS011;33316;52.298;9.056;2023-09-07T11:29:19;2.47;;;1.88;;
47589;SDS011;33316;52.298;9.056;2023-09-07T11:31:46;4.55;;;2.17;;
47589;SDS011;33316;52.298;9.056;2023-09-07T11:34:15;3.30;;;1.70;;
47589;SDS011;33316;52.298;9.056;2023-09-07T11:36:42;3.22;;;2.00;;
47589;SDS011;33316;52.298;9.056;2023-09-07T11:39:09;2.45;;;1.77;;
47589;SDS011;33316;52.298;9.056;2023-09-07T11:41:38;2.83;;;1.90;;
47589;SDS011;33316;52.298;9.056;2023-09-07T11:44:06;2.72;;;1.88;;
47589;SDS011;33316;52.298;9.056;2023-09-07T11:46:33;3.00;;;1.77;;
47589;SDS011;33316;52.298;9.056;2023-09-07T11:49:00;3.22;;;2.03;;
47589;SDS011;33316;52.298;9.056;2023-09-07T11:51:28;1.73;;;1.60;;
47589;SDS011;33316;52.298;9.056;2023-09-07T11:53:55;2.28;;;1.73;;
47589;SDS011;33316;52.298;9.056;2023-09-07T11:56:24;2.55;;;1.60;;
47589;SDS011;33316;52.298;9.056;2023-09-07T11:58:52;3.53;;;1.50;;
47589;SDS011;33316;52.298;9.056;2023-09-07T12:01:20;2.53;;;1.63;;
47589;SDS011;33316;52.298;9.056;2023-09-07T12:03:47;2.92;;;1.80;;
47589;SDS011;33316;52.298;9.056;2023-09-07T12:06:14;2.45;;;1.60;;
47589;SDS011;33316;52.298;9.056;2023-09-07T12:08:42;3.20;;;1.52;;
47589;SDS011;33316;52.298;9.056;2023-09-07T12:11:24;2.35;;;1.60;;
47589;SDS011;33316;52.298;9.056;2023-09-07T12:13:52;2.88;;;1.83;;
47589;SDS011;33316;52.298;9.056;2023-09-07T12:16:19;2.80;;;1.90;;
47589;SDS011;33316;52.298;9.056;2023-09-07T12:18:46;2.53;;;1.70;;
47589;SDS011;33316;52.298;9.056;2023-09-07T12:21:13;3.60;;;1.85;;
47589;SDS011;33316;52.298;9.056;2023-09-07T12:23:40;3.80;;;2.20;;
47589;SDS011;33316;52.298;9.056;2023-09-07T12:26:08;3.33;;;2.33;;
47589;SDS011;33316;52.298;9.056;2023-09-07T12:28:35;3.45;;;2.22;;
47589;SDS011;33316;52.298;9.056;2023-09-07T12:31:04;5.00;;;2.25;;
47589;SDS011;33316;52.298;9.056;2023-09-07T12:33:31;4.20;;;2.88;;
47589;SDS011;33316;52.298;9.056;2023-09-07T12:35:58;8.40;;;2.85;;
47589;SDS011;33316;52.298;9.056;2023-09-07T12:38:26;3.00;;;2.13;;
47589;SDS011;33316;52.298;9.056;2023-09-07T12:40:56;5.15;;;2.70;;
47589;SDS011;33316;52.298;9.056;2023-09-07T12:43:25;6.13;;;2.85;;
47589;SDS011;33316;52.298;9.056;2023-09-07T12:45:52;5.80;;;3.15;;
47589;SDS011;33316;52.298;9.056;2023-09-07T12:48:19;4.30;;;3.00;;
47589;SDS011;33316;52.298;9.056;2023-09-07T12:50:48;4.05;;;2.58;;
47589;SDS011;33316;52.298;9.056;2023-09-07T12:53:15;4.10;;;2.53;;
47589;SDS011;33316;52.298;9.056;2023-09-07T12:55:42;4.97;;;2.53;;
47589;SDS011;33316;52.298;9.056;2023-09-07T12:58:11;2.65;;;2.10;;
47589;SDS011;33316;52.298;9.056;2023-09-07T13:00:39;4.10;;;2.00;;
47589;SDS011;33316;52.298;9.056;2023-09-07T13:03:07;5.65;;;2.30;;
47589;SDS011;33316;52.298;9.056;2023-09-07T13:05:34;3.45;;;2.17;;
47589;SDS011;33316;52.298;9.056;2023-09-07T13:08:01;3.13;;;1.98;;
47589;SDS011;33316;52.298;9.056;2023-09-07T13:10:28;3.65;;;2.05;;
47589;SDS011;33316;52.298;9.056;2023-09-07T13:12:59;4.80;;;2.42;;
47589;SDS011;33316;52.298;9.056;2023-09-07T13:15:27;2.92;;;2.03;;
47589;SDS011;33316;52.298;9.056;2023-09-07T13:17:55;4.57;;;2.08;;
47589;SDS011;33316;52.298;9.056;2023-09-07T13:20:22;4.32;;;2.13;;
47589;SDS011;33316;52.298;9.056;2023-09-07T13:22:49;3.15;;;2.05;;
47589;SDS011;33316;52.298;9.056;2023-09-07T13:25:19;3.20;;;2.22;;
47589;SDS011;33316;52.298;9.056;2023-09-07T13:27:46;4.95;;;2.20;;
47589;SDS011;33316;52.298;9.056;2023-09-07T13:30:14;3.47;;;2.42;;
47589;SDS011;33316;52.298;9.056;2023-09-07T13:32:41;3.35;;;2.10;;
47589;SDS011;33316;52.298;9.056;2023-09-07T13:35:13;5.97;;;2.45;;
47589;SDS011;33316;52.298;9.056;2023-09-07T13:37:40;2.72;;;1.90;;
47589;SDS011;33316;52.298;9.056;2023-09-07T13:40:07;4.95;;;1.88;;
47589;SDS011;33316;52.298;9.056;2023-09-07T13:42:35;3.97;;;2.15;;
47589;SDS011;33316;52.298;9.056;2023-09-07T13:45:04;2.88;;;1.77;;
47589;SDS011;33316;52.298;9.056;2023-09-07T13:47:31;4.13;;;2.00;;
47589;SDS011;33316;52.298;9.056;2023-09-07T13:49:58;2.72;;;2.03;;
47589;SDS011;33316;52.298;9.056;2023-09-07T13:52:27;3.15;;;1.75;;
47589;SDS011;33316;52.298;9.056;2023-09-07T13:54:54;2.63;;;1.83;;
47589;SDS011;33316;52.298;9.056;2023-09-07T13:57:21;3.20;;;2.10;;
47589;SDS011;33316;52.298;9.056;2023-09-07T13:59:48;2.42;;;1.45;;
47589;SDS011;33316;52.298;9.056;2023-09-07T14:02:15;2.70;;;1.88;;
47589;SDS011;33316;52.298;9.056;2023-09-07T14:04:42;2.42;;;1.75;;
47589;SDS011;33316;52.298;9.056;2023-09-07T14:07:09;2.03;;;1.50;;
47589;SDS011;33316;52.298;9.056;2023-09-07T14:09:37;3.40;;;1.88;;
47589;SDS011;33316;52.298;9.056;2023-09-07T14:12:05;3.33;;;1.88;;
47589;SDS011;33316;52.298;9.056;2023-09-07T14:14:32;2.92;;;2.08;;
47589;SDS011;33316;52.298;9.056;2023-09-07T14:16:59;2.90;;;1.80;;
47589;SDS011;33316;52.298;9.056;2023-09-07T14:19:26;3.67;;;1.88;;
47589;SDS011;33316;52.298;9.056;2023-09-07T14:21:56;2.30;;;1.73;;
47589;SDS011;33316;52.298;9.056;2023-09-07T14:24:23;5.07;;;2.35;;
47589;SDS011;33316;52.298;9.056;2023-09-07T14:26:51;4.32;;;1.80;;
47589;SDS011;33316;52.298;9.056;2023-09-07T14:29:18;3.08;;;2.20;;
47589;SDS011;33316;52.298;9.056;2023-09-07T14:31:45;3.13;;;2.08;;
47589;SDS011;33316;52.298;9.056;2023-09-07T14:34:12;2.42;;;1.73;;
47589;SDS011;33316;52.298;9.056;2023-09-07T14:36:39;2.88;;;2.10;;
47589;SDS011;33316;52.298;9.056;2023-09-07T14:39:07;2.97;;;2.10;;
47589;SDS011;33316;52.298;9.056;2023-09-07T14:41:34;3.67;;;2.50;;
47589;SDS011;33316;52.298;9.056;2023-09-07T14:44:03;3.00;;;2.30;;
47589;SDS011;33316;52.298;9.056;2023-09-07T14:46:30;2.90;;;1.80;;
47589;SDS011;33316;52.298;9.056;2023-09-07T14:48:57;2.83;;;1.88;;
47589;SDS011;33316;52.298;9.056;2023-09-07T14:51:26;2.50;;;1.80;;
47589;SDS011;33316;52.298;9.056;2023-09-07T14:53:53;2.38;;;2.08;;
47589;SDS011;33316;52.298;9.056;2023-09-07T14:56:20;3.60;;;2.00;;
47589;SDS011;33316;52.298;9.056;2023-09-07T14:58:47;4.97;;;1.90;;
47589;SDS011;33316;52.298;9.056;2023-09-07T15:01:17;3.75;;;1.77;;
47589;SDS011;33316;52.298;9.056;2023-09-07T15:03:44;4.45;;;2.05;;